Strongsville, Ohio
Current Conditions -  °F | °C
As of 8:51 PM on Saturday 25 Oct 2014 (Local Time) from KCLE Reporting Station
Clear Clear  
Wind Chill: 61°   Ceiling: Unl
Heat Index: 61°   Visibility: 10mi
Dew Point: 40°   Wind: 17mph
Humidity: 46%   Direction: 280°W
Pressure: 29.8"   Gusts: 29mph
Location:  41.31°N, 81.83°W
Report Text: KCLE 260051Z 28015G25KT 10SM CLR 16/04 A2980 RMK AO2 SLP090 T01610044
Loading
Personal Weather Stations






























Interactive Weather Map
Tropical Storm Tracking
New forecast layout! Learn more

10-Day Weather Forecast

Advertisements
Track Severe Weather on mobile